Time;durP1;ratioP1;P1;durP2;ratioP2;P2;SDS_P1;SDS_P2;PMS_P1;PMS_P2;Temp;Humidity;BMP_temperature;BMP_pressure;BME280_temperature;BME280_humidity;BME280_pressure;Samples;Min_cycle;Max_cycle;Signal;HPM_P1;HPM_P2
2022/03/22 00:01:50;;;;;;;14.00;4.70;;;;;;;6.45;57.21;101460.77;109344;1273;137286;-60
2022/03/22 00:04:19;;;;;;;10.40;4.40;;;;;;;6.42;57.23;101464.37;109462;1273;22523;-60
2022/03/22 00:06:48;;;;;;;10.90;4.50;;;;;;;6.37;57.59;101465.45;106406;1274;22655;-60
2022/03/22 00:09:16;;;;;;;12.90;4.60;;;;;;;6.35;57.63;101461.75;109283;1273;137141;-60
2022/03/22 00:11:44;;;;;;;14.60;5.40;;;;;;;6.32;57.79;101463.35;109387;1274;22413;-61
2022/03/22 00:14:13;;;;;;;10.40;4.70;;;;;;;6.30;58.02;101465.02;109341;1273;137385;-60
2022/03/22 00:16:44;;;;;;;14.60;5.20;;;;;;;6.29;57.90;101460.70;109405;1274;22525;-61
2022/03/22 00:19:33;;;;;;;12.00;4.90;;;;;;;6.25;58.13;101462.02;109308;1273;137576;-60
2022/03/22 00:22:02;;;;;;;9.80;4.10;;;;;;;6.20;58.08;101461.18;109445;1273;22496;-60
2022/03/22 00:24:30;;;;;;;19.20;5.30;;;;;;;6.16;58.44;101456.11;109445;1273;22458;-61
2022/03/22 00:26:58;;;;;;;11.30;4.60;;;;;;;6.13;58.11;101460.42;109361;1274;137466;-60
2022/03/22 00:29:27;;;;;;;13.10;4.90;;;;;;;6.09;58.69;101456.77;109456;1273;22428;-60
2022/03/22 00:31:56;;;;;;;9.90;4.70;;;;;;;6.06;58.62;101454.30;109347;1273;138686;-61
2022/03/22 00:38:12;;;;;;;22.00;5.70;;;;;;;5.97;58.77;101452.90;109316;1273;139716;-61
2022/03/22 00:40:40;;;;;;;11.30;4.70;;;;;;;5.92;59.05;101447.39;109454;1273;23332;-60
2022/03/22 00:43:10;;;;;;;13.70;5.30;;;;;;;5.90;59.36;101449.86;109355;1273;138069;-60
2022/03/22 00:45:39;;;;;;;11.60;5.20;;;;;;;5.86;59.28;101449.58;109472;1272;22536;-60
2022/03/22 00:48:17;;;;;;;14.20;5.30;;;;;;;5.82;59.04;101447.09;109473;1273;22418;-60
2022/03/22 00:50:51;;;;;;;16.60;5.10;;;;;;;5.78;59.53;101446.69;109361;1273;137911;-60
2022/03/22 00:53:19;;;;;;;13.30;5.00;;;;;;;5.72;59.61;101443.25;109475;1271;22426;-60
2022/03/22 00:55:48;;;;;;;14.70;5.30;;;;;;;5.68;59.82;101438.64;109369;1273;137315;-60
2022/03/22 00:58:16;;;;;;;11.10;4.90;;;;;;;5.64;59.98;101443.05;109410;1273;22248;-60
2022/03/22 01:00:45;;;;;;;15.90;4.70;;;;;;;5.60;59.95;101439.21;109464;1273;22400;-60
2022/03/22 01:03:14;;;;;;;13.80;5.70;;;;;;;5.56;60.23;101439.33;109358;1272;137932;-60
2022/03/22 01:05:42;;;;;;;14.50;4.90;;;;;;;5.53;60.23;101438.64;108465;1273;22715;-61
2022/03/22 01:08:13;;;;;;;14.90;6.10;;;;;;;5.48;60.28;101441.38;109302;1273;138890;-60
2022/03/22 01:10:45;;;;;;;14.00;5.70;;;;;;;5.43;60.37;101441.95;109500;1273;22425;-60
2022/03/22 01:13:13;;;;;;;9.40;5.00;;;;;;;5.42;60.44;101441.77;109302;1273;139431;-60
2022/03/22 01:15:43;;;;;;;13.50;5.20;;;;;;;5.41;60.32;101437.59;109455;1273;23193;-60
2022/03/22 01:18:12;;;;;;;10.20;5.30;;;;;;;5.40;60.54;101442.23;109423;1273;22406;-60
2022/03/22 01:20:42;;;;;;;9.90;4.70;;;;;;;5.38;60.31;101444.70;109307;1274;138942;-60
2022/03/22 01:23:12;;;;;;;13.00;4.50;;;;;;;5.38;60.40;101445.52;109376;1274;23169;-60
2022/03/22 01:25:41;;;;;;;13.00;5.50;;;;;;;5.36;60.34;101446.80;109324;1273;138986;-60
2022/03/22 01:28:11;;;;;;;10.90;4.90;;;;;;;5.34;60.39;101446.98;109390;1273;22431;-60
2022/03/22 01:30:40;;;;;;;12.60;5.20;;;;;;;5.31;60.59;101448.20;109427;1273;22245;-60
2022/03/22 01:33:08;;;;;;;13.90;5.20;;;;;;;5.28;60.71;101448.41;109293;1273;137408;-60
2022/03/22 01:35:37;;;;;;;16.00;6.00;;;;;;;5.24;60.82;101448.34;109402;1273;22436;-60
2022/03/22 01:38:06;;;;;;;14.30;5.90;;;;;;;5.19;60.46;101453.20;109286;1274;137806;-60
2022/03/22 01:40:35;;;;;;;12.70;5.20;;;;;;;5.15;60.42;101451.21;109383;1273;22444;-60
2022/03/22 01:43:03;;;;;;;15.90;5.50;;;;;;;5.08;60.92;101448.52;109187;1274;138065;-60
2022/03/22 01:45:32;;;;;;;12.40;5.90;;;;;;;5.05;60.93;101447.86;109373;1273;23261;-60
2022/03/22 01:48:02;;;;;;;13.40;5.30;;;;;;;5.02;61.17;101449.48;109334;1274;22418;-60
2022/03/22 01:50:31;;;;;;;15.70;5.40;;;;;;;4.96;61.33;101445.53;109282;1273;137086;-60
2022/03/22 01:52:59;;;;;;;11.70;4.90;;;;;;;4.94;61.51;101442.64;109379;1273;23236;-60
2022/03/22 01:55:28;;;;;;;13.40;5.70;;;;;;;4.91;61.28;101448.85;109338;1273;137513;-60
2022/03/22 01:57:57;;;;;;;15.10;6.10;;;;;;;4.89;61.25;101445.73;109410;1273;22987;-60
2022/03/22 02:00:25;;;;;;;12.70;5.50;;;;;;;4.85;61.40;101450.61;109427;1273;22393;-60
2022/03/22 02:05:51;;;;;;;15.40;5.90;;;;;;;4.79;61.85;101450.74;109353;1274;22394;-60
2022/03/22 02:08:29;;;;;;;10.70;5.50;;;;;;;4.76;62.43;101452.76;109295;1274;137202;-60
2022/03/22 02:11:17;;;;;;;17.50;5.70;;;;;;;4.73;62.45;101449.20;109430;1273;22560;-60
2022/03/22 02:13:47;;;;;;;14.20;5.40;;;;;;;4.70;62.51;101443.92;109194;1274;137358;-60
2022/03/22 02:16:15;;;;;;;15.00;5.90;;;;;;;4.68;62.80;101449.94;109452;1273;23218;-60
2022/03/22 02:18:44;;;;;;;15.30;6.00;;;;;;;4.66;62.74;101449.98;109406;1273;23512;-60
2022/03/22 02:21:18;;;;;;;15.90;5.90;;;;;;;4.62;62.91;101453.02;109248;1273;138442;-60
2022/03/22 02:23:54;;;;;;;13.50;6.20;;;;;;;4.60;62.86;101452.98;109400;1273;23183;-60
2022/03/22 02:26:25;;;;;;;17.20;5.80;;;;;;;4.56;63.10;101458.55;109371;1273;137783;-60
2022/03/22 02:28:54;;;;;;;17.00;5.50;;;;;;;4.54;63.13;101459.18;109469;1273;22413;-60
2022/03/22 02:31:23;;;;;;;11.70;5.60;;;;;;;4.53;63.23;101460.02;109326;1273;138263;-60
2022/03/22 02:33:52;;;;;;;12.60;5.90;;;;;;;4.52;63.34;101459.21;109442;1273;22254;-60
2022/03/22 02:36:20;;;;;;;13.40;6.00;;;;;;;4.51;63.37;101462.22;109413;1274;22431;-60
2022/03/22 02:38:49;;;;;;;19.70;6.00;;;;;;;4.51;63.33;101462.92;109290;1274;138149;-60
2022/03/22 02:41:19;;;;;;;11.20;5.60;;;;;;;4.51;63.35;101467.24;109459;1273;22434;-60
2022/03/22 02:43:48;;;;;;;11.20;5.60;;;;;;;4.52;63.52;101465.92;109350;1273;137324;-60
2022/03/22 02:46:16;;;;;;;18.50;5.70;;;;;;;4.52;63.63;101465.90;109474;1273;22239;-60
2022/03/22 02:48:45;;;;;;;11.70;5.70;;;;;;;4.51;63.46;101465.05;109426;1274;23649;-60
2022/03/22 02:51:13;;;;;;;15.90;6.10;;;;;;;4.48;63.43;101462.69;109352;1274;138949;-60
2022/03/22 02:53:41;;;;;;;13.70;6.10;;;;;;;4.46;63.36;101465.30;109450;1274;22462;-60
2022/03/22 02:56:10;;;;;;;15.60;6.60;;;;;;;4.44;63.53;101462.31;109352;1273;137319;-60
2022/03/22 02:58:40;;;;;;;14.60;6.50;;;;;;;4.40;63.48;101458.06;109423;1274;22415;-60
2022/03/22 03:01:09;;;;;;;18.60;7.00;;;;;;;4.35;63.52;101456.51;109354;1274;137679;-60
2022/03/22 03:03:38;;;;;;;13.50;6.00;;;;;;;4.31;63.58;101459.96;109402;1274;22489;-61
2022/03/22 03:06:06;;;;;;;12.70;5.90;;;;;;;4.27;63.75;101464.88;109497;1273;23079;-60
2022/03/22 03:08:55;;;;;;;;;;;;;;;4.24;63.76;101462.41;109342;1273;138504;-61
2022/03/22 03:11:23;;;;;;;14.40;5.70;;;;;;;4.21;63.98;101462.51;109487;1272;22470;-60
2022/03/22 03:16:40;;;;;;;15.80;6.50;;;;;;;4.13;64.00;101464.55;109511;1272;23218;-60
2022/03/22 03:19:08;;;;;;;15.30;6.20;;;;;;;4.09;64.25;101465.14;109370;1274;137493;-60
2022/03/22 03:21:38;;;;;;;16.70;6.60;;;;;;;4.03;64.29;101470.08;109485;1274;22430;-60
2022/03/22 03:24:06;;;;;;;16.30;6.50;;;;;;;3.97;64.46;101469.16;109449;1274;22394;-60
2022/03/22 03:26:34;;;;;;;15.20;6.40;;;;;;;3.92;64.46;101469.17;109357;1274;137288;-60
2022/03/22 03:29:03;;;;;;;14.40;7.30;;;;;;;3.87;64.68;101468.95;109447;1273;23310;-60
2022/03/22 03:31:31;;;;;;;15.90;6.40;;;;;;;3.85;64.91;101469.05;109367;1274;138378;-60
2022/03/22 03:33:59;;;;;;;21.50;7.50;;;;;;;3.84;65.06;101469.65;109426;1274;22500;-60
2022/03/22 03:36:28;;;;;;;15.50;6.20;;;;;;;3.82;65.08;101469.48;109478;1274;22343;-60
2022/03/22 03:38:56;;;;;;;16.40;5.80;;;;;;;3.82;65.17;101470.25;109255;1274;139866;-60
2022/03/22 03:47:04;;;;;;;14.90;6.00;;;;;;;3.81;65.40;101481.33;109416;1274;23195;-60
2022/03/22 03:49:34;;;;;;;14.50;6.60;;;;;;;3.80;65.44;101485.02;109340;1274;137448;-60
2022/03/22 03:52:03;;;;;;;13.30;6.20;;;;;;;3.78;65.45;101487.16;109473;1274;22467;-60
2022/03/22 03:54:31;;;;;;;16.70;7.80;;;;;;;3.77;65.65;101486.06;109459;1274;22437;-60
2022/03/22 03:57:00;;;;;;;17.00;7.10;;;;;;;3.75;65.65;101483.45;109372;1274;138721;-60
2022/03/22 03:59:29;;;;;;;15.30;6.10;;;;;;;3.72;65.64;101487.47;109460;1274;22470;-60
2022/03/22 04:01:57;;;;;;;17.00;7.10;;;;;;;3.71;65.80;101487.86;109346;1274;137599;-60
2022/03/22 04:04:25;;;;;;;16.70;6.90;;;;;;;3.68;66.03;101489.94;109432;1274;22498;-60
2022/03/22 04:06:54;;;;;;;15.50;6.70;;;;;;;3.67;66.06;101491.52;109288;1274;137859;-60
2022/03/22 04:09:22;;;;;;;17.50;7.00;;;;;;;3.64;66.07;101497.73;109494;1273;23421;-60
2022/03/22 04:12:11;;;;;;;14.80;5.80;;;;;;;3.62;66.27;101497.99;109480;1274;22490;-60
2022/03/22 04:14:40;;;;;;;19.30;7.20;;;;;;;3.58;66.32;101499.63;109368;1274;138528;-60
2022/03/22 04:17:09;;;;;;;19.40;7.10;;;;;;;3.58;66.23;101498.79;105799;1274;26300;-61
2022/03/22 04:19:37;;;;;;;15.40;6.50;;;;;;;3.57;66.18;101497.13;109339;1274;137497;-60
2022/03/22 04:22:08;;;;;;;14.60;6.30;;;;;;;3.55;66.41;101495.83;109451;1274;22473;-60
2022/03/22 04:24:36;;;;;;;16.50;6.00;;;;;;;3.54;66.43;101500.61;109455;1274;22449;-60
2022/03/22 04:32:43;;;;;;;14.20;6.70;;;;;;;3.57;66.75;101508.89;109154;1273;268505;-60
2022/03/22 04:36:00;;;;;;;19.40;7.40;;;;;;;3.64;66.78;101513.58;101760;1310;546411;-60
2022/03/22 04:38:29;;;;;;;21.90;6.70;;;;;;;3.66;66.81;101517.99;108301;1284;136893;-60
2022/03/22 04:40:57;;;;;;;14.10;6.90;;;;;;;3.71;66.73;101522.54;108261;1287;22448;-60
2022/03/22 04:43:26;;;;;;;14.60;7.00;;;;;;;3.76;66.81;101522.51;108227;1286;138310;-60
2022/03/22 04:45:55;;;;;;;21.60;7.30;;;;;;;3.83;66.80;101526.70;108359;1287;23073;-60
2022/03/22 04:48:24;;;;;;;15.40;7.90;;;;;;;3.93;66.71;101529.59;108333;1286;22440;-60
2022/03/22 04:56:43;;;;;;;22.80;8.80;;;;;;;4.06;66.48;101528.02;108367;1281;137666;-60
2022/03/22 04:56:48;;;;;;;18.20;7.10;;;;;;;4.41;66.19;101533.85;108476;1283;125271;-60
2022/03/22 04:59:20;;;;;;;14.60;7.40;;;;;;;4.61;65.93;101533.52;108570;1283;22403;-60
2022/03/22 05:01:50;;;;;;;17.80;8.30;;;;;;;4.77;65.40;101532.45;108492;1284;136946;-60
2022/03/22 05:04:18;;;;;;;19.40;7.40;;;;;;;4.89;65.06;101535.02;108603;1284;22270;-60
2022/03/22 05:06:46;;;;;;;15.80;7.00;;;;;;;4.95;64.54;101525.86;108599;1284;22428;-60
2022/03/22 05:09:14;;;;;;;16.90;7.30;;;;;;;5.01;64.51;101527.58;108411;1284;136705;-60
2022/03/22 05:11:44;;;;;;;20.70;8.00;;;;;;;5.05;64.30;101531.89;108500;1284;22404;-60
2022/03/22 05:14:12;;;;;;;19.00;8.20;;;;;;;5.12;64.18;101533.25;108404;1284;138310;-60
2022/03/22 05:16:41;;;;;;;16.10;6.80;;;;;;;5.17;64.01;101531.69;108482;1285;22254;-60
2022/03/22 05:19:09;;;;;;;18.00;6.80;;;;;;;5.19;63.89;101530.58;108373;1286;137123;-60
2022/03/22 05:21:37;;;;;;;18.80;7.10;;;;;;;5.20;63.41;101529.84;108499;1285;22413;-60
2022/03/22 05:24:08;;;;;;;17.10;7.70;;;;;;;5.22;63.79;101530.71;108474;1285;22384;-60
2022/03/22 05:26:37;;;;;;;19.20;7.50;;;;;;;5.24;63.43;101531.59;108365;1285;136772;-60
2022/03/22 05:29:05;;;;;;;17.00;7.40;;;;;;;5.24;63.24;101535.84;108793;1282;23407;-60
2022/03/22 05:31:34;;;;;;;15.40;6.90;;;;;;;5.23;63.18;101542.13;108689;1282;138384;-60
2022/03/22 05:34:03;;;;;;;18.40;7.40;;;;;;;5.21;62.98;101549.32;108694;1282;22429;-60
2022/03/22 05:36:32;;;;;;;20.70;7.90;;;;;;;5.22;63.55;101554.15;108666;1283;22464;-60
2022/03/22 05:39:00;;;;;;;18.80;7.20;;;;;;;5.22;63.04;101552.63;108642;1282;137347;-59
2022/03/22 05:41:29;;;;;;;17.50;8.00;;;;;;;5.23;62.95;101553.77;108746;1283;23558;-60
2022/03/22 05:43:58;;;;;;;18.70;7.80;;;;;;;5.24;63.28;101554.59;108603;1282;138206;-60
2022/03/22 05:46:26;;;;;;;18.10;7.80;;;;;;;5.26;63.13;101555.13;109205;1277;22470;-60
2022/03/22 05:48:55;;;;;;;18.70;8.10;;;;;;;5.28;63.09;101555.23;109036;1277;137004;-59
2022/03/22 05:51:23;;;;;;;20.80;7.70;;;;;;;5.32;62.90;101557.52;109165;1277;23566;-60
2022/03/22 05:53:52;;;;;;;18.30;9.10;;;;;;;5.34;62.72;101561.77;109173;1277;22436;-60
2022/03/22 05:56:20;;;;;;;20.60;8.90;;;;;;;5.37;62.49;101565.52;106901;1277;137954;-60
2022/03/22 05:58:48;;;;;;;19.20;7.90;;;;;;;5.42;62.51;101567.14;109137;1277;23161;-60
2022/03/22 06:01:17;;;;;;;18.50;8.10;;;;;;;5.48;62.27;101566.71;109014;1277;137386;-60
2022/03/22 06:03:45;;;;;;;29.10;10.70;;;;;;;5.53;62.05;101566.32;109243;1277;23108;-60
2022/03/22 06:06:13;;;;;;;84.90;44.60;;;;;;;5.57;61.64;101565.84;109250;1277;22442;-60
2022/03/22 06:08:42;;;;;;;25.50;12.30;;;;;;;5.61;61.85;101571.47;109138;1277;137942;-60
2022/03/22 06:11:10;;;;;;;26.50;11.40;;;;;;;5.67;61.66;101570.76;109254;1277;22470;-60
2022/03/22 06:13:42;;;;;;;22.60;10.70;;;;;;;5.72;61.20;101570.36;109115;1277;138926;-60
2022/03/22 06:16:10;;;;;;;21.20;9.40;;;;;;;5.81;61.07;101574.27;109143;1277;22459;-60
2022/03/22 06:18:40;;;;;;;27.30;13.70;;;;;;;5.89;61.05;101577.37;109205;1277;22590;-60
2022/03/22 06:21:08;;;;;;;26.60;12.50;;;;;;;5.99;60.68;101580.23;109058;1277;139017;-60
2022/03/22 06:23:36;;;;;;;25.90;12.80;;;;;;;6.06;60.24;101583.58;109190;1277;23658;-60
2022/03/22 06:26:04;;;;;;;26.10;14.00;;;;;;;6.14;59.93;101582.64;109060;1277;138653;-60
2022/03/22 06:28:33;;;;;;;29.40;15.10;;;;;;;6.20;59.38;101584.80;109186;1277;22487;-60
2022/03/22 06:31:01;;;;;;;32.20;12.70;;;;;;;6.25;58.97;101585.84;109051;1277;137202;-60
2022/03/22 06:33:29;;;;;;;22.70;11.10;;;;;;;6.30;58.91;101590.50;109188;1277;22498;-60
2022/03/22 06:35:58;;;;;;;26.00;10.50;;;;;;;6.37;59.24;101596.36;109163;1277;22659;-60
2022/03/22 06:38:26;;;;;;;24.70;11.20;;;;;;;6.44;59.06;101600.25;109076;1277;137956;-60
2022/03/22 06:40:54;;;;;;;23.50;10.50;;;;;;;6.48;58.45;101595.92;109215;1277;22411;-60
2022/03/22 06:43:22;;;;;;;21.60;10.50;;;;;;;6.52;58.87;101598.85;109012;1277;138239;-60
2022/03/22 06:45:50;;;;;;;19.70;10.50;;;;;;;6.61;58.72;101602.60;108964;1280;23536;-60
2022/03/22 06:48:18;;;;;;;23.60;11.20;;;;;;;6.67;58.12;101605.00;109088;1277;22412;-60
2022/03/22 06:50:49;;;;;;;19.40;9.90;;;;;;;6.71;58.16;101602.73;109156;1277;137737;-60
2022/03/22 06:53:18;;;;;;;24.10;10.20;;;;;;;6.77;58.07;101607.64;109255;1277;22545;-61
2022/03/22 06:55:46;;;;;;;16.00;8.00;;;;;;;6.86;57.37;101607.36;109147;1277;138058;-61
2022/03/22 06:58:18;;;;;;;20.70;9.70;;;;;;;6.90;57.22;101609.19;109220;1277;22436;-60
2022/03/22 07:00:48;;;;;;;20.00;9.70;;;;;;;6.92;56.62;101612.57;109154;1277;22396;-61
2022/03/22 07:03:16;;;;;;;18.90;10.40;;;;;;;6.95;56.71;101609.92;109115;1277;137064;-61
2022/03/22 07:05:45;;;;;;;23.60;10.50;;;;;;;7.01;56.58;101614.14;109265;1277;23252;-61
2022/03/22 07:08:14;;;;;;;19.90;9.10;;;;;;;7.09;56.07;101615.20;109108;1277;138266;-61
2022/03/22 07:13:49;;;;;;;20.60;9.60;;;;;;;7.20;55.86;101617.30;109101;1277;137986;-58
2022/03/22 07:16:19;;;;;;;22.40;10.20;;;;;;;7.29;55.94;101619.69;109204;1277;23178;-61
2022/03/22 07:18:47;;;;;;;23.00;11.00;;;;;;;7.36;55.68;101617.00;109251;1277;22409;-61
2022/03/22 07:21:15;;;;;;;16.40;8.00;;;;;;;7.44;55.07;101613.64;108893;1280;138349;-61
2022/03/22 07:23:44;;;;;;;16.70;8.40;;;;;;;7.51;54.84;101608.88;109143;1277;22495;-61
2022/03/22 07:26:14;;;;;;;20.10;8.80;;;;;;;7.59;54.56;101608.75;109116;1277;137474;-61
2022/03/22 07:28:43;;;;;;;20.40;8.70;;;;;;;7.67;54.02;101606.54;109216;1277;22579;-61
2022/03/22 07:31:12;;;;;;;15.60;8.50;;;;;;;7.68;53.78;101607.65;109090;1277;138241;-61
2022/03/22 07:33:40;;;;;;;21.40;8.70;;;;;;;7.70;54.00;101604.30;109161;1277;23289;-61
2022/03/22 07:36:09;;;;;;;20.50;9.00;;;;;;;7.75;54.02;101608.39;107360;1277;24231;-60
2022/03/22 07:38:38;;;;;;;19.30;8.40;;;;;;;7.82;53.86;101608.30;104589;1278;137591;-60
2022/03/22 07:41:07;;;;;;;19.50;9.10;;;;;;;7.91;53.68;101606.49;104675;1278;24940;-60
2022/03/22 07:43:37;;;;;;;18.60;9.30;;;;;;;7.99;53.97;101606.18;109029;1277;137693;-61
2022/03/22 07:46:05;;;;;;;21.70;9.30;;;;;;;8.07;53.46;101606.90;109256;1277;22506;-60
2022/03/22 07:48:34;;;;;;;17.80;9.30;;;;;;;8.16;52.62;101605.67;109275;1277;22603;-61
2022/03/22 07:53:54;;;;;;;18.20;8.30;;;;;;;8.42;52.22;101605.15;108967;1277;22396;-60
2022/03/22 07:56:23;;;;;;;17.80;8.20;;;;;;;8.49;51.98;101605.12;109146;1277;138282;-60
2022/03/22 07:58:51;;;;;;;18.80;7.30;;;;;;;8.53;51.62;101606.43;109231;1277;22455;-61
2022/03/22 08:01:19;;;;;;;18.40;7.40;;;;;;;8.54;51.77;101606.45;109097;1277;138189;-61
2022/03/22 08:03:48;;;;;;;16.00;7.40;;;;;;;8.58;51.06;101607.55;109174;1277;22475;-61
2022/03/22 08:06:16;;;;;;;18.60;6.80;;;;;;;8.66;50.56;101609.13;107163;1277;25352;-60
2022/03/22 08:08:45;;;;;;;16.90;7.10;;;;;;;8.74;50.39;101607.40;108985;1277;137859;-61
2022/03/22 08:11:13;;;;;;;18.80;7.10;;;;;;;8.80;50.26;101609.80;109141;1277;22492;-61
2022/03/22 08:13:59;;;;;;;16.80;7.00;;;;;;;8.86;49.55;101605.49;109079;1277;138918;-61
2022/03/22 08:16:28;;;;;;;13.90;7.00;;;;;;;8.91;49.71;101608.73;109228;1277;22446;-61
2022/03/22 08:19:19;;;;;;;16.60;7.20;;;;;;;8.95;49.84;101608.00;109097;1277;138589;-61
2022/03/22 08:21:48;;;;;;;19.90;7.80;;;;;;;8.99;49.38;101607.92;109228;1276;23256;-62
2022/03/22 08:24:16;;;;;;;23.50;8.20;;;;;;;9.06;49.48;101604.85;109274;1277;23997;-61
2022/03/22 08:26:45;;;;;;;15.70;7.10;;;;;;;9.16;49.12;101606.46;109122;1277;138679;-60
2022/03/22 08:29:13;;;;;;;16.70;7.50;;;;;;;9.25;48.93;101604.60;109165;1277;22414;-61
2022/03/22 08:31:43;;;;;;;12.90;7.20;;;;;;;9.36;48.41;101600.23;109049;1277;138250;-60
2022/03/22 08:34:12;;;;;;;12.40;6.80;;;;;;;9.47;48.51;101598.02;109104;1277;23171;-60
2022/03/22 08:36:40;;;;;;;15.90;7.40;;;;;;;9.55;48.06;101600.90;109126;1277;23237;-60
2022/03/22 08:39:10;;;;;;;14.80;6.20;;;;;;;9.63;47.44;101602.01;109069;1277;139236;-60
2022/03/22 08:41:39;;;;;;;12.90;5.70;;;;;;;9.70;46.06;101601.95;109157;1277;22413;-60
2022/03/22 08:44:08;;;;;;;14.00;6.70;;;;;;;9.75;45.76;101597.96;108999;1277;137678;-61
2022/03/22 08:46:37;;;;;;;16.40;6.60;;;;;;;9.84;45.82;101601.02;109247;1277;22549;-60
2022/03/22 08:49:05;;;;;;;15.10;5.80;;;;;;;9.93;45.60;101591.64;109064;1277;139724;-60
2022/03/22 08:51:34;;;;;;;12.90;6.10;;;;;;;10.00;44.98;101591.41;109017;1280;23305;-60
2022/03/22 08:54:02;;;;;;;16.90;8.50;;;;;;;10.08;44.34;101591.77;109173;1277;22439;-61
2022/03/22 08:56:30;;;;;;;15.20;6.60;;;;;;;10.18;44.30;101590.98;109039;1277;138893;-59
2022/03/22 08:59:00;;;;;;;12.50;4.80;;;;;;;10.28;43.72;101589.68;109222;1277;22418;-60
2022/03/22 09:01:33;;;;;;;13.00;5.70;;;;;;;10.39;42.32;101594.41;108889;1279;138715;-60
2022/03/22 09:06:48;;;;;;;14.80;5.70;;;;;;;10.59;41.85;101588.40;109264;1277;22405;-60
2022/03/22 09:09:16;;;;;;;17.70;6.20;;;;;;;10.68;40.47;101585.58;109023;1277;138010;-60
2022/03/22 09:11:46;;;;;;;13.50;6.30;;;;;;;10.73;40.84;101587.59;109220;1277;22468;-60
2022/03/22 09:14:14;;;;;;;14.90;6.10;;;;;;;10.76;41.13;101585.54;109110;1277;139442;-60
2022/03/22 09:16:42;;;;;;;12.40;6.30;;;;;;;10.80;41.06;101582.61;109248;1277;22534;-60
2022/03/22 09:19:11;;;;;;;12.20;6.30;;;;;;;10.84;41.08;101579.78;109129;1277;138814;-60
2022/03/22 09:21:39;;;;;;;14.10;6.30;;;;;;;10.91;41.05;101579.25;109275;1277;23219;-60
2022/03/22 09:24:07;;;;;;;14.40;5.90;;;;;;;10.98;40.59;101581.50;109281;1277;22508;-61
2022/03/22 09:26:36;;;;;;;14.20;6.00;;;;;;;11.02;40.38;101583.02;109146;1277;138393;-61
2022/03/22 09:29:04;;;;;;;13.60;5.90;;;;;;;11.07;40.29;101577.61;109159;1277;22252;-61
2022/03/22 09:31:32;;;;;;;16.70;5.70;;;;;;;11.14;39.73;101577.94;108980;1277;138825;-59
2022/03/22 09:34:01;;;;;;;12.20;5.70;;;;;;;11.23;38.89;101571.13;109119;1277;22506;-61
2022/03/22 09:36:30;;;;;;;14.80;5.70;;;;;;;11.33;38.80;101573.05;109125;1277;23271;-59
2022/03/22 09:38:58;;;;;;;9.30;4.70;;;;;;;11.42;38.42;101564.32;108925;1280;139243;-59
2022/03/22 09:41:28;;;;;;;9.60;4.30;;;;;;;11.48;37.99;101567.89;109172;1277;22550;-59
2022/03/22 09:43:56;;;;;;;10.40;4.30;;;;;;;11.55;36.42;101565.48;108910;1277;138616;-59
2022/03/22 09:46:25;;;;;;;13.40;5.60;;;;;;;11.64;36.45;101563.92;108950;1280;23780;-59
2022/03/22 09:48:57;;;;;;;13.40;4.40;;;;;;;11.77;35.90;101563.48;109018;1277;138492;-59
2022/03/22 09:54:12;;;;;;;8.60;5.00;;;;;;;11.94;35.40;101557.38;109140;1277;23134;-59
2022/03/22 09:56:43;;;;;;;8.10;3.70;;;;;;;11.99;34.38;101557.30;109037;1277;138266;-60
2022/03/22 09:59:12;;;;;;;6.30;3.40;;;;;;;12.06;33.86;101556.98;109207;1276;22856;-61
2022/03/22 10:01:41;;;;;;;7.70;3.50;;;;;;;12.11;33.89;101557.88;109126;1277;139005;-59
2022/03/22 10:04:12;;;;;;;11.90;3.80;;;;;;;12.16;33.73;101555.06;109233;1277;23177;-60
2022/03/22 10:07:02;;;;;;;7.80;3.70;;;;;;;12.23;33.12;101548.15;109246;1277;22397;-59
2022/03/22 10:09:58;;;;;;;6.80;3.70;;;;;;;12.29;32.75;101544.27;109266;1277;22545;-59
2022/03/22 10:12:33;;;;;;;6.50;3.30;;;;;;;12.36;32.86;101546.80;109242;1277;22450;-59
2022/03/22 10:15:31;;;;;;;9.90;4.10;;;;;;;12.41;32.35;101542.55;109072;1277;138772;-59
2022/03/22 10:18:01;;;;;;;8.60;3.10;;;;;;;12.47;32.41;101540.91;109097;1277;22455;-60
2022/03/22 10:20:40;;;;;;;7.90;2.90;;;;;;;12.52;32.61;101539.09;109030;1277;138025;-59
2022/03/22 10:23:10;;;;;;;5.80;2.60;;;;;;;12.57;32.45;101533.89;109172;1277;22358;-59
2022/03/22 10:25:40;;;;;;;5.20;2.70;;;;;;;12.62;31.84;101528.94;109058;1277;139253;-60
2022/03/22 10:28:09;;;;;;;8.90;3.30;;;;;;;12.67;31.91;101530.09;109148;1277;22561;-59
2022/03/22 10:30:37;;;;;;;8.40;3.20;;;;;;;12.75;31.80;101530.01;109124;1277;22433;-60
2022/03/22 10:33:06;;;;;;;5.90;2.60;;;;;;;12.82;31.45;101531.52;109066;1277;138630;-60
2022/03/22 10:35:36;;;;;;;4.60;2.40;;;;;;;12.85;31.06;101524.27;109094;1277;22563;-60
2022/03/22 10:38:06;;;;;;;5.10;3.40;;;;;;;12.88;30.99;101523.48;108899;1278;138820;-59
2022/03/22 10:40:35;;;;;;;9.20;3.20;;;;;;;12.93;31.27;101523.34;109197;1277;22451;-60
2022/03/22 10:43:05;;;;;;;8.90;3.60;;;;;;;12.96;31.86;101519.14;109188;1277;22529;-61
2022/03/22 10:45:53;;;;;;;7.70;3.30;;;;;;;13.00;31.28;101522.58;109149;1277;138819;-62
2022/03/22 10:48:30;;;;;;;5.00;2.80;;;;;;;13.02;31.90;101520.41;109250;1277;23690;-61
2022/03/22 10:50:59;;;;;;;6.60;3.30;;;;;;;13.03;31.62;101508.38;108969;1277;137442;-61
2022/03/22 10:53:29;;;;;;;7.30;3.30;;;;;;;13.04;31.64;101506.52;109139;1277;22430;-61
2022/03/22 10:55:59;;;;;;;6.50;3.30;;;;;;;13.08;31.77;101503.19;109114;1277;139391;-60
2022/03/22 10:58:28;;;;;;;9.10;3.40;;;;;;;13.13;32.13;101502.12;109018;1277;22469;-60
2022/03/22 11:01:03;;;;;;;11.60;4.40;;;;;;;13.17;32.34;101495.54;109125;1277;22424;-60
2022/03/22 11:03:32;;;;;;;9.50;4.90;;;;;;;13.24;32.91;101491.56;109136;1277;138638;-60
2022/03/22 11:06:02;;;;;;;11.40;4.30;;;;;;;13.34;32.91;101490.05;109203;1277;22441;-61
2022/03/22 11:08:31;;;;;;;9.80;4.80;;;;;;;13.44;33.16;101491.27;109119;1277;137767;-59
2022/03/22 11:11:00;;;;;;;8.90;4.50;;;;;;;13.52;33.17;101479.85;109214;1277;22453;-59
2022/03/22 11:13:49;;;;;;;9.00;5.20;;;;;;;13.59;32.90;101474.77;108815;1277;138928;-62
2022/03/22 11:16:18;;;;;;;11.70;4.20;;;;;;;13.63;32.32;101471.67;109275;1277;23196;-61
2022/03/22 11:19:07;;;;;;;9.80;4.50;;;;;;;13.68;31.85;101476.23;109040;1277;22436;-59
2022/03/22 11:21:38;;;;;;;9.90;4.00;;;;;;;13.69;31.99;101475.69;108963;1277;138677;-60
2022/03/22 11:24:12;;;;;;;9.20;4.50;;;;;;;13.67;32.42;101470.86;109155;1277;23505;-60
2022/03/22 11:26:43;;;;;;;11.20;4.80;;;;;;;13.63;32.33;101469.39;108973;1277;137932;-59
2022/03/22 11:29:18;;;;;;;9.20;4.30;;;;;;;13.60;32.44;101472.33;109063;1277;22448;-60
2022/03/22 11:34:08;;;;;;;12.80;4.30;;;;;;;13.57;32.54;101466.28;109050;1277;138955;-59
2022/03/22 11:34:37;;;;;;;8.70;4.70;;;;;;;13.59;32.56;101465.39;109062;1277;22639;-60
2022/03/22 11:37:09;;;;;;;10.90;4.80;;;;;;;13.61;32.34;101461.86;109150;1277;22451;-60
2022/03/22 11:42:25;;;;;;;13.20;4.40;;;;;;;13.63;32.70;101454.81;109011;1278;22472;-60
2022/03/22 11:45:00;;;;;;;11.90;4.90;;;;;;;13.64;32.84;101455.05;109070;1277;137562;-60
2022/03/22 11:47:42;;;;;;;13.00;4.60;;;;;;;13.64;32.76;101455.17;109106;1277;22427;-60
2022/03/22 11:50:17;;;;;;;8.70;4.40;;;;;;;13.67;32.67;101458.26;108938;1278;139013;-60
2022/03/22 11:52:47;;;;;;;8.60;4.20;;;;;;;13.67;32.78;101450.64;109232;1277;22424;-60
2022/03/22 11:55:22;;;;;;;9.00;4.30;;;;;;;13.66;32.99;101448.79;109175;1277;23189;-60
2022/03/22 11:57:58;;;;;;;10.60;4.60;;;;;;;13.65;32.95;101446.32;108939;1279;137429;-60
2022/03/22 12:00:46;;;;;;;9.10;4.70;;;;;;;13.66;33.10;101439.73;109212;1277;23213;-60
2022/03/22 12:03:16;;;;;;;10.40;4.60;;;;;;;13.70;32.99;101437.91;108970;1277;139100;-60
2022/03/22 12:05:45;;;;;;;9.20;4.20;;;;;;;13.75;32.92;101436.94;109202;1277;22443;-60